createdAt,value
2022-12-29T00:01:20.073Z,10.11
2022-12-29T00:06:21.855Z,10.17
2022-12-29T00:11:27.810Z,10.09
2022-12-29T00:16:30.115Z,10.11
2022-12-29T00:21:32.178Z,10.06
2022-12-29T00:26:33.723Z,9.99
2022-12-29T00:31:35.254Z,10.04
2022-12-29T00:36:40.667Z,9.92
2022-12-29T00:41:42.115Z,10.02
2022-12-29T00:46:44.235Z,9.94
2022-12-29T00:51:46.085Z,9.97
2022-12-29T00:56:51.983Z,10.05
2022-12-29T01:01:54.847Z,10.00
2022-12-29T01:06:56.471Z,9.87
2022-12-29T01:11:58.834Z,9.83
2022-12-29T01:17:00.419Z,9.95
2022-12-29T01:22:02.009Z,9.95
2022-12-29T01:27:03.523Z,9.78
2022-12-29T01:32:05.356Z,10.01
2022-12-29T01:37:06.832Z,10.09
2022-12-29T01:42:17.249Z,9.92
2022-12-29T01:47:31.145Z,10.00
2022-12-29T01:52:35.607Z,10.03
2022-12-29T01:57:40.824Z,10.08
2022-12-29T02:02:50.172Z,10.19
2022-12-29T02:07:53.354Z,10.00
2022-12-29T02:12:55.141Z,9.96
2022-12-29T02:18:26.411Z,10.16
2022-12-29T02:23:34.971Z,10.16
2022-12-29T02:28:39.196Z,10.16
2022-12-29T02:33:50.490Z,10.09
2022-12-29T02:39:21.641Z,10.24
2022-12-29T02:44:25.736Z,10.21
2022-12-29T02:50:01.695Z,10.22
2022-12-29T02:55:03.555Z,10.11
2022-12-29T03:00:08.120Z,10.17
2022-12-29T03:05:40.254Z,10.17
2022-12-29T03:11:00.839Z,10.06
2022-12-29T03:16:28.290Z,10.06
2022-12-29T03:21:35.103Z,10.21
2022-12-29T03:26:38.138Z,10.20
2022-12-29T03:31:40.207Z,10.18
2022-12-29T03:36:50.163Z,10.27
2022-12-29T03:41:58.896Z,10.31
2022-12-29T03:47:00.426Z,10.23
2022-12-29T03:52:02.157Z,10.28
2022-12-29T03:57:03.671Z,10.26
2022-12-29T04:02:05.402Z,10.26
2022-12-29T04:07:06.895Z,10.23
2022-12-29T04:12:09.357Z,10.33
2022-12-29T04:17:10.814Z,10.35
2022-12-29T04:22:12.290Z,10.34
2022-12-29T04:27:13.823Z,10.48
2022-12-29T04:32:16.100Z,10.34
2022-12-29T04:37:18.157Z,10.51
2022-12-29T04:42:19.817Z,10.41
2022-12-29T04:47:21.301Z,10.46
2022-12-29T04:52:22.766Z,10.29
2022-12-29T04:57:24.398Z,10.47
2022-12-29T05:02:26.120Z,10.41
2022-12-29T05:07:27.654Z,10.49
2022-12-29T05:12:32.694Z,10.38
2022-12-29T05:17:34.326Z,10.51
2022-12-29T05:22:35.799Z,10.42
2022-12-29T05:27:37.738Z,10.32
2022-12-29T05:32:39.326Z,10.36
2022-12-29T05:37:40.872Z,10.47
2022-12-29T05:42:42.363Z,10.54
2022-12-29T05:47:43.792Z,10.46
2022-12-29T05:52:45.404Z,10.46
2022-12-29T05:57:46.906Z,10.61
2022-12-29T06:02:48.596Z,10.54
2022-12-29T06:07:50.248Z,10.59
2022-12-29T06:12:51.724Z,10.53
2022-12-29T06:17:53.138Z,10.49
2022-12-29T06:22:54.605Z,10.53
2022-12-29T06:27:56.107Z,10.49
2022-12-29T06:32:58.663Z,10.37
2022-12-29T06:38:00.144Z,10.43
2022-12-29T06:43:01.623Z,10.39
2022-12-29T06:48:05.916Z,10.48
2022-12-29T06:53:07.418Z,10.22
2022-12-29T06:58:09.074Z,10.33
2022-12-29T07:03:10.541Z,10.29
2022-12-29T07:08:12.049Z,10.43
2022-12-29T07:13:13.584Z,10.35
2022-12-29T07:18:15.123Z,10.28
2022-12-29T07:23:16.539Z,10.38
2022-12-29T07:28:18.038Z,10.28
2022-12-29T07:33:19.571Z,10.38
2022-12-29T07:38:21.052Z,10.38
2022-12-29T07:43:22.626Z,10.43
2022-12-29T07:48:24.253Z,10.49
2022-12-29T07:53:25.808Z,10.37
2022-12-29T07:58:27.915Z,10.42
2022-12-29T08:03:29.507Z,10.56
2022-12-29T08:08:31.121Z,10.51
2022-12-29T08:13:32.565Z,10.49
2022-12-29T08:18:34.041Z,10.53
2022-12-29T08:23:35.730Z,10.51
2022-12-29T08:28:37.184Z,10.37
2022-12-29T08:33:38.799Z,10.30
2022-12-29T08:38:40.364Z,10.26
2022-12-29T08:43:41.869Z,10.19
2022-12-29T08:48:43.392Z,10.21
2022-12-29T08:53:44.995Z,10.18
2022-12-29T08:58:46.462Z,10.36
2022-12-29T09:09:10.241Z,10.22
2022-12-29T09:14:11.949Z,10.31
2022-12-29T09:19:14.183Z,10.45
2022-12-29T09:24:15.697Z,10.46
2022-12-29T09:29:17.148Z,10.48
2022-12-29T09:34:18.571Z,10.55
2022-12-29T09:39:19.980Z,10.57
2022-12-29T09:44:21.486Z,10.57
2022-12-29T09:49:38.201Z,10.58
2022-12-29T09:54:53.713Z,10.45
2022-12-29T10:00:13.602Z,10.62
2022-12-29T10:05:52.955Z,10.68
2022-12-29T10:11:07.242Z,10.93
2022-12-29T10:16:11.494Z,10.99
2022-12-29T10:21:32.218Z,11.14
2022-12-29T10:26:41.705Z,11.20
2022-12-29T10:31:51.591Z,11.09
2022-12-29T10:37:02.666Z,11.22
2022-12-29T10:42:28.264Z,11.21
2022-12-29T10:47:35.995Z,11.25
2022-12-29T10:52:40.059Z,11.28
2022-12-29T10:57:46.294Z,11.18
2022-12-29T11:03:09.532Z,11.16
2022-12-29T11:08:18.953Z,11.06
2022-12-29T11:13:27.345Z,11.03
2022-12-29T11:18:41.038Z,11.00
2022-12-29T11:23:42.872Z,11.04
2022-12-29T11:29:09.324Z,11.21
2022-12-29T11:34:20.217Z,11.21
2022-12-29T11:39:26.638Z,11.18
2022-12-29T11:44:28.442Z,11.03
2022-12-29T11:49:29.963Z,11.03
2022-12-29T11:54:37.181Z,11.07
2022-12-29T11:59:42.850Z,11.08
2022-12-29T12:04:44.275Z,10.97
2022-12-29T12:10:03.170Z,11.13
2022-12-29T12:15:17.642Z,11.10
2022-12-29T12:20:46.921Z,11.09
2022-12-29T12:26:00.724Z,11.21
2022-12-29T12:31:03.597Z,11.27
2022-12-29T12:36:38.678Z,11.24
2022-12-29T12:41:57.519Z,11.17
2022-12-29T12:47:10.915Z,11.22
2022-12-29T12:52:30.840Z,11.23
2022-12-29T12:57:41.750Z,11.34
2022-12-29T13:03:20.885Z,11.23
2022-12-29T13:08:25.611Z,11.25
2022-12-29T13:14:04.174Z,11.37
2022-12-29T13:19:11.942Z,11.42
2022-12-29T13:24:27.100Z,11.39
2022-12-29T13:29:37.344Z,11.23
2022-12-29T13:34:54.743Z,11.26
2022-12-29T13:40:04.800Z,11.23
2022-12-29T13:45:11.347Z,11.22
2022-12-29T13:50:19.790Z,11.23
2022-12-29T13:55:30.610Z,11.15
2022-12-29T14:00:48.611Z,11.14
2022-12-29T14:06:16.031Z,11.14
2022-12-29T14:11:20.961Z,11.12
2022-12-29T14:16:32.972Z,10.99
2022-12-29T14:21:34.895Z,10.86
2022-12-29T14:26:36.706Z,10.95
2022-12-29T14:31:38.174Z,10.88
2022-12-29T14:36:59.055Z,10.73
2022-12-29T14:42:21.997Z,10.65
2022-12-29T14:47:32.217Z,10.76
2022-12-29T14:52:43.021Z,10.85
2022-12-29T14:58:01.373Z,10.82
2022-12-29T15:03:20.600Z,10.67
2022-12-29T15:08:26.246Z,10.45
2022-12-29T15:13:38.901Z,10.54
2022-12-29T15:18:40.350Z,10.41
2022-12-29T15:23:44.823Z,10.22
2022-12-29T15:28:47.389Z,9.98
2022-12-29T15:33:52.028Z,10.03
2022-12-29T15:38:54.439Z,9.90
2022-12-29T15:44:18.243Z,9.72
2022-12-29T15:49:21.432Z,9.68
2022-12-29T15:54:24.367Z,9.51
2022-12-29T15:59:29.495Z,9.46
2022-12-29T16:04:43.218Z,9.56
2022-12-29T16:09:57.295Z,9.43
2022-12-29T16:15:02.599Z,9.33
2022-12-29T16:20:16.652Z,9.14
2022-12-29T16:25:18.070Z,9.06
2022-12-29T16:30:33.418Z,8.92
2022-12-29T16:35:44.981Z,9.02
2022-12-29T16:41:03.708Z,8.98
2022-12-29T16:46:26.304Z,9.10
2022-12-29T16:51:37.483Z,8.91
2022-12-29T16:56:45.645Z,8.83
2022-12-29T17:01:47.602Z,8.71
2022-12-29T17:06:49.231Z,8.59
2022-12-29T17:11:59.237Z,8.62
2022-12-29T17:17:06.305Z,8.49
2022-12-29T17:22:16.156Z,8.42
2022-12-29T17:27:35.685Z,8.34
2022-12-29T17:32:37.298Z,8.35
2022-12-29T17:37:38.772Z,8.34
2022-12-29T17:42:47.163Z,8.34
2022-12-29T17:47:48.802Z,8.32
2022-12-29T17:52:55.327Z,8.28
2022-12-29T17:58:01.983Z,8.21
2022-12-29T18:03:03.828Z,8.10
2022-12-29T18:08:05.409Z,8.03
2022-12-29T18:13:07.299Z,8.01
2022-12-29T18:18:13.947Z,7.90
2022-12-29T18:23:20.727Z,7.86
2022-12-29T18:28:22.733Z,7.80
2022-12-29T18:33:26.653Z,7.82
2022-12-29T18:38:29.303Z,7.93
2022-12-29T18:43:30.783Z,8.05
2022-12-29T18:48:32.431Z,7.86
2022-12-29T18:53:34.057Z,7.83
2022-12-29T18:58:36.231Z,7.73
2022-12-29T19:03:37.793Z,7.74
2022-12-29T19:08:39.475Z,7.81
2022-12-29T19:13:41.110Z,7.85
2022-12-29T19:18:44.498Z,7.80
2022-12-29T19:23:47.632Z,7.88
2022-12-29T19:28:49.054Z,7.83
2022-12-29T19:33:50.723Z,7.84
2022-12-29T19:38:52.316Z,7.81
2022-12-29T19:43:53.766Z,7.85
2022-12-29T19:48:55.408Z,7.79
2022-12-29T19:53:57.247Z,7.76
2022-12-29T19:58:59.083Z,7.87
2022-12-29T20:04:00.586Z,7.62
2022-12-29T20:09:02.739Z,7.84
2022-12-29T20:14:04.533Z,7.79
2022-12-29T20:19:06.089Z,7.94
2022-12-29T20:24:07.746Z,7.83
2022-12-29T20:29:09.179Z,7.88
2022-12-29T20:34:11.226Z,7.92
2022-12-29T20:39:18.847Z,7.79
2022-12-29T20:44:20.297Z,7.91
2022-12-29T20:49:21.938Z,7.74
2022-12-29T20:54:30.763Z,7.62
2022-12-29T20:59:35.714Z,8.02
2022-12-29T21:05:05.612Z,7.94
2022-12-29T21:09:58.736Z,7.85
2022-12-29T21:15:00.300Z,7.97
2022-12-29T21:20:02.444Z,8.13
2022-12-29T21:25:04.240Z,8.24
2022-12-29T21:30:06.366Z,8.28
2022-12-29T21:35:09.725Z,8.24
2022-12-29T21:40:11.699Z,8.08
2022-12-29T21:45:19.832Z,8.04
2022-12-29T21:50:21.908Z,8.05
2022-12-29T21:55:23.320Z,7.92
2022-12-29T22:00:24.985Z,7.81
2022-12-29T22:05:26.629Z,7.77
2022-12-29T22:10:28.182Z,7.85
2022-12-29T22:15:32.808Z,7.83
2022-12-29T22:20:36.328Z,7.87
2022-12-29T22:25:39.411Z,7.90
2022-12-29T22:30:41.039Z,7.96
2022-12-29T22:35:42.453Z,7.80
2022-12-29T22:40:44.003Z,7.74
2022-12-29T22:45:45.459Z,7.76
2022-12-29T22:50:47.011Z,7.61
2022-12-29T22:55:48.553Z,7.61
2022-12-29T23:00:50.019Z,7.64
2022-12-29T23:05:59.174Z,7.91
2022-12-29T23:11:01.586Z,7.70
2022-12-29T23:16:03.220Z,7.60
2022-12-29T23:21:05.286Z,7.67
2022-12-29T23:26:07.737Z,7.68
2022-12-29T23:31:09.359Z,7.49
2022-12-29T23:36:10.961Z,7.60
2022-12-29T23:41:12.689Z,7.48
2022-12-29T23:46:21.172Z,7.44
2022-12-29T23:51:22.768Z,7.48
2022-12-29T23:56:24.473Z,7.34
